createdAt,value
2022-10-13T00:01:18.362Z,12.26
2022-10-13T00:03:49.554Z,12.85
2022-10-13T00:06:27.837Z,13.21
2022-10-13T00:08:59.825Z,13.10
2022-10-13T00:11:31.483Z,11.94
2022-10-13T00:14:03.310Z,10.87
2022-10-13T00:16:34.301Z,10.33
2022-10-13T00:19:04.810Z,11.18
2022-10-13T00:21:35.616Z,12.02
2022-10-13T00:24:06.235Z,12.42
2022-10-13T00:26:36.804Z,12.66
2022-10-13T00:29:10.995Z,12.96
2022-10-13T00:31:41.875Z,12.84
2022-10-13T00:34:12.379Z,11.72
2022-10-13T00:36:43.179Z,10.61
2022-10-13T00:39:13.716Z,10.06
2022-10-13T00:41:44.418Z,10.88
2022-10-13T00:44:28.509Z,11.82
2022-10-13T00:46:59.203Z,12.30
2022-10-13T00:49:29.698Z,12.66
2022-10-13T00:52:00.387Z,12.93
2022-10-13T00:54:31.056Z,12.63
2022-10-13T00:57:02.926Z,11.36
2022-10-13T00:59:35.154Z,10.23
2022-10-13T01:02:06.080Z,9.74
2022-10-13T01:04:38.914Z,10.63
2022-10-13T01:07:09.905Z,11.55
2022-10-13T01:09:42.789Z,12.11
2022-10-13T01:12:20.013Z,12.50
2022-10-13T01:14:54.506Z,12.79
2022-10-13T01:17:29.879Z,12.70
2022-10-13T01:20:24.355Z,11.53
2022-10-13T01:23:01.915Z,10.29
2022-10-13T01:25:45.135Z,9.88
2022-10-13T01:28:28.380Z,10.94
2022-10-13T01:31:00.959Z,11.88
2022-10-13T01:33:35.739Z,12.34
2022-10-13T01:36:12.240Z,12.55
2022-10-13T01:38:46.369Z,12.37
2022-10-13T01:41:20.591Z,11.24
2022-10-13T01:43:54.275Z,10.13
2022-10-13T01:46:26.565Z,9.55
2022-10-13T01:48:59.546Z,10.45
2022-10-13T01:51:30.796Z,11.42
2022-10-13T01:54:01.704Z,12.07
2022-10-13T01:56:32.442Z,12.47
2022-10-13T01:59:04.637Z,12.44
2022-10-13T02:01:40.996Z,11.32
2022-10-13T02:04:18.873Z,10.15
2022-10-13T02:06:52.315Z,9.56
2022-10-13T02:09:26.864Z,10.46
2022-10-13T02:12:00.217Z,11.43
2022-10-13T02:14:34.838Z,12.07
2022-10-13T02:17:06.678Z,12.45
2022-10-13T02:19:39.948Z,12.36
2022-10-13T02:22:11.567Z,11.19
2022-10-13T02:24:42.355Z,10.07
2022-10-13T02:27:13.603Z,9.50
2022-10-13T02:29:54.206Z,10.34
2022-10-13T02:32:25.511Z,11.26
2022-10-13T02:34:56.807Z,11.85
2022-10-13T02:37:27.376Z,12.19
2022-10-13T02:39:57.827Z,12.14
2022-10-13T02:42:28.406Z,11.08
2022-10-13T02:44:59.535Z,9.97
2022-10-13T02:47:29.897Z,9.38
2022-10-13T02:50:00.540Z,10.16
2022-10-13T02:52:31.098Z,10.96
2022-10-13T02:55:02.319Z,11.56
2022-10-13T02:57:32.982Z,11.89
2022-10-13T03:00:05.759Z,11.74
2022-10-13T03:02:36.363Z,10.70
2022-10-13T03:05:07.527Z,9.58
2022-10-13T03:07:38.053Z,9.09
2022-10-13T03:10:09.578Z,9.97
2022-10-13T03:12:40.105Z,10.85
2022-10-13T03:15:11.219Z,11.49
2022-10-13T03:17:41.877Z,11.89
2022-10-13T03:20:12.922Z,12.10
2022-10-13T03:22:48.721Z,11.35
2022-10-13T03:25:20.425Z,10.01
2022-10-13T03:27:51.188Z,9.24
2022-10-13T03:30:22.103Z,9.85
2022-10-13T03:32:52.732Z,10.68
2022-10-13T03:35:23.465Z,11.23
2022-10-13T03:37:54.020Z,11.55
2022-10-13T03:40:26.257Z,11.66
2022-10-13T03:42:57.115Z,11.62
2022-10-13T03:45:28.034Z,10.51
2022-10-13T03:47:58.578Z,9.31
2022-10-13T03:50:30.283Z,8.76
2022-10-13T03:53:00.774Z,9.63
2022-10-13T03:55:31.580Z,10.40
2022-10-13T03:58:02.108Z,10.89
2022-10-13T04:00:32.911Z,11.28
2022-10-13T04:03:03.291Z,11.61
2022-10-13T04:05:34.957Z,11.62
2022-10-13T04:08:05.943Z,10.49
2022-10-13T04:10:37.119Z,9.30
2022-10-13T04:13:08.025Z,8.65
2022-10-13T04:15:41.367Z,9.45
2022-10-13T04:18:13.030Z,10.21
2022-10-13T04:20:43.618Z,10.79
2022-10-13T04:23:14.879Z,11.22
2022-10-13T04:25:51.532Z,11.42
2022-10-13T04:28:22.116Z,11.52
2022-10-13T04:30:52.827Z,11.26
2022-10-13T04:33:23.410Z,10.10
2022-10-13T04:35:54.366Z,9.02
2022-10-13T04:38:25.045Z,9.06
2022-10-13T04:40:55.998Z,9.88
2022-10-13T04:43:28.203Z,10.42
2022-10-13T04:46:03.151Z,10.88
2022-10-13T04:48:33.591Z,11.23
2022-10-13T04:51:05.521Z,11.38
2022-10-13T04:53:36.578Z,11.33
2022-10-13T04:56:10.003Z,10.52
2022-10-13T04:58:41.105Z,9.24
2022-10-13T05:01:16.497Z,8.67
2022-10-13T05:03:51.600Z,9.64
2022-10-13T05:06:23.443Z,10.45
2022-10-13T05:08:59.636Z,11.06
2022-10-13T05:11:30.987Z,11.40
2022-10-13T05:14:03.337Z,11.53
2022-10-13T05:16:33.946Z,11.65
2022-10-13T05:19:04.532Z,11.44
2022-10-13T05:21:35.270Z,10.28
2022-10-13T05:24:06.642Z,9.11
2022-10-13T05:26:37.612Z,8.54
2022-10-13T05:29:08.130Z,9.49
2022-10-13T05:31:38.818Z,10.42
2022-10-13T05:34:09.816Z,11.03
2022-10-13T05:36:40.633Z,11.46
2022-10-13T05:39:11.267Z,11.73
2022-10-13T05:41:41.890Z,11.66
2022-10-13T05:44:17.977Z,10.50
2022-10-13T05:46:57.769Z,9.30
2022-10-13T05:49:28.262Z,8.86
2022-10-13T05:52:00.844Z,9.81
2022-10-13T05:54:32.784Z,10.66
2022-10-13T05:57:04.740Z,11.11
2022-10-13T05:59:36.959Z,11.39
2022-10-13T06:02:09.325Z,11.65
2022-10-13T06:04:41.405Z,11.59
2022-10-13T06:07:12.567Z,10.48
2022-10-13T06:09:44.364Z,9.38
2022-10-13T06:12:15.268Z,9.47
2022-10-13T06:14:46.982Z,10.34
2022-10-13T06:17:19.094Z,11.06
2022-10-13T06:19:51.048Z,11.54
2022-10-13T06:22:23.216Z,11.77
2022-10-13T06:24:53.851Z,11.78
2022-10-13T06:27:24.615Z,10.67
2022-10-13T06:29:57.043Z,9.53
2022-10-13T06:32:27.855Z,9.00
2022-10-13T06:34:58.446Z,9.88
2022-10-13T06:37:29.336Z,10.75
2022-10-13T06:40:00.126Z,11.16
2022-10-13T06:42:34.781Z,11.51
2022-10-13T06:45:12.846Z,11.70
2022-10-13T06:47:44.167Z,10.71
2022-10-13T06:50:15.265Z,9.43
2022-10-13T06:52:45.981Z,8.88
2022-10-13T06:55:17.327Z,9.71
2022-10-13T06:57:47.983Z,10.49
2022-10-13T07:00:18.963Z,11.08
2022-10-13T07:02:52.665Z,11.42
2022-10-13T07:05:23.220Z,11.73
2022-10-13T07:07:54.505Z,11.97
2022-10-13T07:10:25.369Z,12.08
2022-10-13T07:12:56.350Z,11.73
2022-10-13T07:15:27.787Z,10.64
2022-10-13T07:17:58.828Z,9.93
2022-10-13T07:20:29.533Z,10.73
2022-10-13T07:23:00.495Z,11.57
2022-10-13T07:25:31.123Z,12.25
2022-10-13T07:28:02.042Z,12.56
2022-10-13T07:30:32.523Z,12.65
2022-10-13T07:33:03.791Z,11.69
2022-10-13T07:35:34.351Z,10.80
2022-10-13T07:38:05.269Z,10.41
2022-10-13T07:40:35.815Z,11.29
2022-10-13T07:43:06.467Z,11.97
2022-10-13T07:45:37.292Z,12.64
2022-10-13T07:48:07.971Z,13.01
2022-10-13T07:50:39.172Z,12.55
2022-10-13T07:53:09.753Z,11.55
2022-10-13T07:55:40.337Z,11.05
2022-10-13T07:58:11.051Z,11.91
2022-10-13T08:00:41.676Z,12.75
2022-10-13T08:03:12.204Z,13.32
2022-10-13T08:05:42.826Z,12.75
2022-10-13T08:08:14.047Z,11.72
2022-10-13T08:10:44.567Z,11.29
2022-10-13T08:13:15.811Z,12.17
2022-10-13T08:15:47.073Z,13.04
2022-10-13T08:18:18.236Z,13.31
2022-10-13T08:20:49.480Z,12.47
2022-10-13T08:23:21.747Z,11.58
2022-10-13T08:25:54.245Z,11.32
2022-10-13T08:28:25.963Z,12.33
2022-10-13T08:30:58.074Z,13.31
2022-10-13T08:33:28.883Z,13.78
2022-10-13T08:35:59.437Z,12.99
2022-10-13T08:38:30.351Z,12.17
2022-10-13T08:41:01.078Z,11.60
2022-10-13T08:43:31.967Z,11.58
2022-10-13T08:46:03.090Z,12.79
2022-10-13T08:48:36.319Z,13.96
2022-10-13T08:51:07.853Z,13.91
2022-10-13T08:53:41.510Z,13.11
2022-10-13T08:56:15.757Z,12.46
2022-10-13T08:58:50.393Z,12.03
2022-10-13T09:01:23.840Z,12.62
2022-10-13T09:03:55.804Z,13.89
2022-10-13T09:06:28.938Z,14.59
2022-10-13T09:09:00.767Z,14.00
2022-10-13T09:11:34.087Z,13.26
2022-10-13T09:14:06.340Z,12.74
2022-10-13T09:16:38.964Z,12.77
2022-10-13T09:19:17.065Z,14.04
2022-10-13T09:21:47.861Z,14.76
2022-10-13T09:24:19.921Z,14.22
2022-10-13T09:26:52.696Z,13.60
2022-10-13T09:29:26.079Z,13.18
2022-10-13T09:32:08.583Z,12.90
2022-10-13T09:34:39.044Z,13.39
2022-10-13T09:37:18.051Z,14.74
2022-10-13T09:40:00.463Z,15.54
2022-10-13T09:42:33.535Z,15.03
2022-10-13T09:45:03.758Z,14.45
2022-10-13T09:47:34.369Z,14.05
2022-10-13T09:50:15.458Z,13.81
2022-10-13T09:52:47.030Z,13.62
2022-10-13T09:55:33.070Z,13.47
2022-10-13T09:58:06.154Z,13.76
2022-10-13T10:00:36.936Z,15.16
2022-10-13T10:03:11.698Z,16.08
2022-10-13T10:05:45.658Z,15.72
2022-10-13T10:08:22.582Z,15.12
2022-10-13T10:11:01.903Z,14.68
2022-10-13T10:13:32.911Z,14.45
2022-10-13T10:16:07.130Z,14.28
2022-10-13T10:18:39.296Z,14.16
2022-10-13T10:21:14.693Z,14.10
2022-10-13T10:23:48.024Z,14.06
2022-10-13T10:26:24.142Z,14.06
2022-10-13T10:29:16.344Z,14.06
2022-10-13T10:32:04.122Z,14.04
2022-10-13T10:34:39.414Z,14.31
2022-10-13T10:37:25.696Z,15.83
2022-10-13T10:40:03.813Z,16.78
2022-10-13T10:42:52.318Z,16.34
2022-10-13T10:45:24.427Z,15.86
2022-10-13T10:47:57.913Z,15.59
2022-10-13T10:50:32.192Z,15.42
2022-10-13T10:53:06.098Z,15.33
2022-10-13T10:55:39.183Z,15.30
2022-10-13T10:58:08.248Z,15.29
2022-10-13T11:00:42.905Z,15.30
2022-10-13T11:03:20.675Z,15.33
2022-10-13T11:06:05.729Z,15.35
2022-10-13T11:08:44.338Z,15.39
2022-10-13T11:11:37.818Z,15.40
2022-10-13T11:14:25.609Z,15.41
2022-10-13T11:17:19.643Z,15.45
2022-10-13T11:19:51.541Z,15.53
2022-10-13T11:22:24.361Z,15.56
2022-10-13T11:25:05.620Z,15.61
2022-10-13T11:27:45.885Z,15.67
2022-10-13T11:30:33.728Z,15.74
2022-10-13T11:33:25.657Z,15.77
2022-10-13T11:35:56.050Z,15.84
2022-10-13T11:38:31.264Z,15.89
2022-10-13T11:41:08.295Z,15.95
2022-10-13T11:43:45.832Z,16.02
2022-10-13T11:46:25.222Z,16.08
2022-10-13T11:49:05.630Z,16.14
2022-10-13T11:51:42.160Z,16.18
2022-10-13T11:54:21.000Z,16.24
2022-10-13T11:56:52.259Z,16.28
2022-10-13T11:59:24.751Z,16.35
2022-10-13T12:01:59.817Z,16.41
2022-10-13T12:04:31.369Z,16.48
2022-10-13T12:07:03.788Z,16.53
2022-10-13T12:09:37.907Z,16.58
2022-10-13T12:12:13.964Z,16.63
2022-10-13T12:14:46.134Z,16.66
2022-10-13T12:17:23.911Z,16.69
2022-10-13T12:19:55.548Z,16.71
2022-10-13T12:22:26.510Z,16.76
2022-10-13T12:25:01.426Z,16.81
2022-10-13T12:27:33.779Z,16.86
2022-10-13T12:30:05.062Z,16.91
2022-10-13T12:32:36.029Z,16.97
2022-10-13T12:35:17.379Z,17.03
2022-10-13T12:37:48.852Z,17.08
2022-10-13T12:40:20.366Z,17.15
2022-10-13T12:42:51.656Z,17.21
2022-10-13T12:45:24.666Z,17.28
2022-10-13T12:47:55.736Z,17.33
2022-10-13T12:50:37.244Z,17.38
2022-10-13T12:53:20.686Z,17.42
2022-10-13T12:55:52.847Z,17.43
2022-10-13T12:58:24.061Z,17.48
2022-10-13T13:01:05.109Z,17.52
2022-10-13T13:03:37.630Z,17.61
2022-10-13T13:06:22.635Z,18.05
2022-10-13T13:09:19.658Z,19.02
2022-10-13T13:11:51.123Z,20.04
2022-10-13T13:14:25.532Z,20.64
2022-10-13T13:17:07.027Z,20.76
2022-10-13T13:19:37.931Z,20.69
2022-10-13T13:22:08.710Z,20.77
2022-10-13T13:24:40.785Z,21.25
2022-10-13T13:27:17.626Z,21.88
2022-10-13T13:29:48.458Z,22.42
2022-10-13T13:32:21.022Z,22.86
2022-10-13T13:34:51.633Z,23.27
2022-10-13T13:37:31.317Z,23.58
2022-10-13T13:40:01.711Z,23.82
2022-10-13T13:42:32.940Z,24.05
2022-10-13T13:45:03.277Z,24.22
2022-10-13T13:47:34.314Z,24.42
2022-10-13T13:50:05.183Z,24.58
2022-10-13T13:52:36.723Z,24.69
2022-10-13T13:55:08.853Z,24.73
2022-10-13T13:57:40.036Z,24.58
2022-10-13T14:00:11.547Z,24.39
2022-10-13T14:02:43.172Z,24.31
2022-10-13T14:05:13.645Z,24.26
2022-10-13T14:07:44.611Z,24.26
2022-10-13T14:10:14.893Z,24.13
2022-10-13T14:12:46.205Z,23.80
2022-10-13T14:15:16.569Z,23.61
2022-10-13T14:17:47.436Z,23.36
2022-10-13T14:20:18.203Z,23.05
2022-10-13T14:22:49.512Z,22.98
2022-10-13T14:25:20.561Z,23.07
2022-10-13T14:27:51.770Z,23.08
2022-10-13T14:30:22.201Z,23.05
2022-10-13T14:32:53.063Z,23.02
2022-10-13T14:35:23.287Z,23.06
2022-10-13T14:37:54.113Z,23.03
2022-10-13T14:40:24.363Z,22.83
2022-10-13T14:42:55.386Z,22.36
2022-10-13T14:45:25.776Z,21.83
2022-10-13T14:47:56.644Z,21.35
2022-10-13T14:50:27.855Z,20.84
2022-10-13T14:52:59.612Z,20.30
2022-10-13T14:55:32.243Z,19.83
2022-10-13T14:58:04.082Z,19.47
2022-10-13T15:00:34.814Z,19.11
2022-10-13T15:03:06.157Z,18.72
2022-10-13T15:05:36.672Z,18.38
2022-10-13T15:08:08.012Z,18.12
2022-10-13T15:10:38.873Z,17.89
2022-10-13T15:13:09.887Z,17.66
2022-10-13T15:15:46.552Z,17.42
2022-10-13T15:18:17.255Z,17.20
2022-10-13T15:20:48.675Z,16.99
2022-10-13T15:23:20.725Z,16.82
2022-10-13T15:25:56.353Z,16.64
2022-10-13T15:28:28.116Z,16.45
2022-10-13T15:30:58.532Z,16.31
2022-10-13T15:33:29.868Z,16.17
2022-10-13T15:36:00.343Z,16.03
2022-10-13T15:38:31.578Z,15.86
2022-10-13T15:41:02.980Z,15.71
2022-10-13T15:43:34.375Z,15.57
2022-10-13T15:46:06.138Z,15.44
2022-10-13T15:48:37.084Z,15.33
2022-10-13T15:51:14.729Z,15.20
2022-10-13T15:53:45.710Z,15.11
2022-10-13T15:56:16.204Z,15.01
2022-10-13T15:58:47.369Z,14.92
2022-10-13T16:01:18.025Z,14.84
2022-10-13T16:03:50.040Z,14.78
2022-10-13T16:06:22.136Z,14.73
2022-10-13T16:08:53.061Z,14.68
2022-10-13T16:11:23.766Z,14.63
2022-10-13T16:13:55.838Z,14.60
2022-10-13T16:16:28.057Z,14.56
2022-10-13T16:19:01.144Z,14.52
2022-10-13T16:21:32.141Z,14.48
2022-10-13T16:24:05.305Z,14.42
2022-10-13T16:26:35.760Z,14.35
2022-10-13T16:29:06.871Z,14.28
2022-10-13T16:31:37.235Z,14.21
2022-10-13T16:34:08.373Z,14.14
2022-10-13T16:36:38.843Z,14.07
2022-10-13T16:39:09.778Z,14.00
2022-10-13T16:41:40.905Z,13.93
2022-10-13T16:44:11.836Z,13.87
2022-10-13T16:46:43.193Z,14.10
2022-10-13T16:49:14.097Z,15.45
2022-10-13T16:51:44.484Z,16.50
2022-10-13T16:54:15.359Z,16.84
2022-10-13T16:56:47.009Z,16.33
2022-10-13T16:59:17.741Z,15.69
2022-10-13T17:01:49.048Z,15.21
2022-10-13T17:04:22.316Z,14.85
2022-10-13T17:06:52.819Z,14.56
2022-10-13T17:09:23.908Z,14.31
2022-10-13T17:11:54.381Z,14.11
2022-10-13T17:14:25.731Z,13.93
2022-10-13T17:16:57.972Z,14.07
2022-10-13T17:19:29.147Z,15.34
2022-10-13T17:21:59.544Z,16.51
2022-10-13T17:24:31.071Z,17.03
2022-10-13T17:27:03.887Z,16.38
2022-10-13T17:29:34.886Z,15.61
2022-10-13T17:32:05.358Z,15.07
2022-10-13T17:34:36.809Z,14.67
2022-10-13T17:37:09.442Z,14.32
2022-10-13T17:39:41.215Z,14.05
2022-10-13T17:42:11.575Z,14.09
2022-10-13T17:44:44.147Z,15.26
2022-10-13T17:47:14.838Z,16.42
2022-10-13T17:49:46.324Z,16.94
2022-10-13T17:52:17.822Z,16.28
2022-10-13T17:54:51.684Z,15.48
2022-10-13T17:57:22.382Z,14.90
2022-10-13T17:59:54.982Z,14.49
2022-10-13T18:02:25.516Z,14.17
2022-10-13T18:04:56.085Z,14.18
2022-10-13T18:07:26.487Z,15.32
2022-10-13T18:09:58.135Z,16.16
2022-10-13T18:12:28.981Z,15.71
2022-10-13T18:14:59.993Z,15.02
2022-10-13T18:17:30.532Z,14.50
2022-10-13T18:20:01.944Z,14.12
2022-10-13T18:22:33.003Z,14.13
2022-10-13T18:25:04.670Z,15.31
2022-10-13T18:27:35.111Z,16.42
2022-10-13T18:30:07.263Z,16.90
2022-10-13T18:32:38.522Z,16.22
2022-10-13T18:35:10.438Z,15.38
2022-10-13T18:37:40.801Z,14.74
2022-10-13T18:40:12.627Z,14.28
2022-10-13T18:42:46.752Z,13.91
2022-10-13T18:45:18.225Z,13.91
2022-10-13T18:47:51.531Z,15.10
2022-10-13T18:50:22.587Z,16.15
2022-10-13T18:52:53.295Z,16.59
2022-10-13T18:55:24.485Z,15.82
2022-10-13T18:57:55.860Z,14.98
2022-10-13T19:00:26.709Z,14.36
2022-10-13T19:02:56.962Z,13.91
2022-10-13T19:05:28.207Z,13.57
2022-10-13T19:08:00.661Z,13.58
2022-10-13T19:10:33.194Z,14.76
2022-10-13T19:13:04.389Z,15.86
2022-10-13T19:15:35.213Z,16.36
2022-10-13T19:18:06.464Z,15.64
2022-10-13T19:20:37.908Z,14.76
2022-10-13T19:23:08.665Z,14.13
2022-10-13T19:25:42.136Z,13.69
2022-10-13T19:28:13.168Z,13.60
2022-10-13T19:30:44.323Z,14.74
2022-10-13T19:33:15.934Z,15.81
2022-10-13T19:35:52.034Z,16.28
2022-10-13T19:38:22.315Z,15.51
2022-10-13T19:40:53.612Z,14.65
2022-10-13T19:43:24.139Z,14.03
2022-10-13T19:45:59.794Z,13.54
2022-10-13T19:48:30.747Z,13.49
2022-10-13T19:51:03.150Z,14.66
2022-10-13T19:53:33.518Z,15.68
2022-10-13T19:56:04.869Z,16.37
2022-10-13T19:58:35.702Z,16.54
2022-10-13T20:01:08.581Z,15.63
2022-10-13T20:03:39.002Z,14.66
2022-10-13T20:06:11.180Z,13.96
2022-10-13T20:08:42.130Z,13.70
2022-10-13T20:11:15.736Z,14.72
2022-10-13T20:13:48.551Z,15.73
2022-10-13T20:16:21.793Z,16.31
2022-10-13T20:18:53.752Z,15.90
2022-10-13T20:21:24.882Z,14.78
2022-10-13T20:23:55.763Z,13.93
2022-10-13T20:26:27.498Z,13.83
2022-10-13T20:28:58.467Z,14.84
2022-10-13T20:31:30.006Z,15.71
2022-10-13T20:34:00.435Z,16.00
2022-10-13T20:36:38.760Z,15.11
2022-10-13T20:39:10.061Z,14.10
2022-10-13T20:41:41.323Z,13.35
2022-10-13T20:44:13.096Z,13.13
2022-10-13T20:46:43.916Z,14.15
2022-10-13T20:49:14.262Z,15.08
2022-10-13T20:51:45.549Z,15.67
2022-10-13T20:54:16.863Z,16.05
2022-10-13T20:56:48.634Z,15.51
2022-10-13T20:59:18.996Z,14.36
2022-10-13T21:01:49.873Z,13.42
2022-10-13T21:04:20.462Z,13.02
2022-10-13T21:06:53.356Z,13.89
2022-10-13T21:09:23.979Z,14.79
2022-10-13T21:11:55.179Z,15.36
2022-10-13T21:14:27.409Z,15.74
2022-10-13T21:16:58.505Z,15.83
2022-10-13T21:19:29.614Z,14.90
2022-10-13T21:22:01.327Z,13.93
2022-10-13T21:24:32.596Z,13.25
2022-10-13T21:27:03.593Z,13.72
2022-10-13T21:29:34.094Z,14.74
2022-10-13T21:32:05.343Z,15.44
2022-10-13T21:34:35.738Z,15.61
2022-10-13T21:37:06.991Z,14.61
2022-10-13T21:39:37.586Z,13.56
2022-10-13T21:42:08.631Z,12.76
2022-10-13T21:44:39.930Z,12.48
2022-10-13T21:47:11.740Z,13.52
2022-10-13T21:49:42.344Z,14.61
2022-10-13T21:52:13.155Z,14.98
2022-10-13T21:54:43.516Z,15.05
2022-10-13T21:57:14.492Z,14.86
2022-10-13T21:59:44.866Z,13.52
2022-10-13T22:02:16.044Z,13.19
2022-10-13T22:04:46.361Z,14.26
2022-10-13T22:07:17.000Z,14.72
2022-10-13T22:09:47.407Z,14.82
2022-10-13T22:12:18.469Z,14.75
2022-10-13T22:14:49.490Z,13.46
2022-10-13T22:17:24.256Z,13.19
2022-10-13T22:19:54.876Z,13.84
2022-10-13T22:22:30.756Z,14.22
2022-10-13T22:25:02.043Z,14.44
2022-10-13T22:27:36.313Z,14.56
2022-10-13T22:30:07.776Z,15.06
2022-10-13T22:32:38.577Z,14.21
2022-10-13T22:35:09.889Z,12.89
2022-10-13T22:37:40.652Z,13.06
2022-10-13T22:40:12.327Z,13.78
2022-10-13T22:42:42.922Z,14.09
2022-10-13T22:45:13.520Z,14.73
2022-10-13T22:47:44.508Z,14.88
2022-10-13T22:50:14.952Z,14.79
2022-10-13T22:52:45.589Z,14.89
2022-10-13T22:55:16.474Z,15.06
2022-10-13T22:57:47.411Z,15.14
2022-10-13T23:00:18.296Z,15.36
2022-10-13T23:02:50.126Z,15.25
2022-10-13T23:05:20.388Z,14.20
2022-10-13T23:07:51.605Z,13.18
2022-10-13T23:10:21.911Z,12.77
2022-10-13T23:12:53.192Z,13.60
2022-10-13T23:15:23.675Z,14.31
2022-10-13T23:17:54.860Z,14.79
2022-10-13T23:20:25.555Z,15.21
2022-10-13T23:22:56.531Z,15.33
2022-10-13T23:25:27.424Z,15.48
2022-10-13T23:27:59.333Z,14.78
2022-10-13T23:30:30.350Z,13.60
2022-10-13T23:33:01.095Z,13.01
2022-10-13T23:35:32.143Z,13.81
2022-10-13T23:38:03.360Z,14.66
2022-10-13T23:40:34.591Z,15.17
2022-10-13T23:43:05.936Z,15.43
2022-10-13T23:45:36.357Z,14.75
2022-10-13T23:48:08.954Z,13.59
2022-10-13T23:50:39.287Z,12.94
2022-10-13T23:53:09.949Z,13.65
2022-10-13T23:55:40.828Z,14.50
2022-10-13T23:58:11.831Z,15.05
